sensor_id;sensor_type;location;lat;lon;timestamp;temperature;humidity
11087;DHT22;5597;47.588;9.642;2023-02-14T00:02:07;0.70;99.90
11087;DHT22;5597;47.588;9.642;2023-02-14T00:04:33;0.70;99.90
11087;DHT22;5597;47.588;9.642;2023-02-14T00:06:59;0.70;99.90
11087;DHT22;5597;47.588;9.642;2023-02-14T00:09:25;0.70;99.90
11087;DHT22;5597;47.588;9.642;2023-02-14T00:11:51;0.70;99.90
11087;DHT22;5597;47.588;9.642;2023-02-14T00:14:17;0.70;99.90
11087;DHT22;5597;47.588;9.642;2023-02-14T00:17:01;0.70;99.90
11087;DHT22;5597;47.588;9.642;2023-02-14T00:19:27;0.70;99.90
11087;DHT22;5597;47.588;9.642;2023-02-14T00:21:53;0.70;99.90
11087;DHT22;5597;47.588;9.642;2023-02-14T00:24:24;0.70;99.90
11087;DHT22;5597;47.588;9.642;2023-02-14T00:26:51;0.70;99.90
11087;DHT22;5597;47.588;9.642;2023-02-14T00:29:23;0.70;99.90
11087;DHT22;5597;47.588;9.642;2023-02-14T00:31:49;0.70;99.90
11087;DHT22;5597;47.588;9.642;2023-02-14T00:34:16;0.70;99.90
11087;DHT22;5597;47.588;9.642;2023-02-14T00:36:42;0.80;99.90
11087;DHT22;5597;47.588;9.642;2023-02-14T00:39:09;0.80;99.90
11087;DHT22;5597;47.588;9.642;2023-02-14T00:41:35;0.80;99.90
11087;DHT22;5597;47.588;9.642;2023-02-14T00:44:01;0.80;99.90
11087;DHT22;5597;47.588;9.642;2023-02-14T00:46:27;0.80;99.90
11087;DHT22;5597;47.588;9.642;2023-02-14T00:48:53;0.80;99.90
11087;DHT22;5597;47.588;9.642;2023-02-14T00:51:19;0.80;99.90
11087;DHT22;5597;47.588;9.642;2023-02-14T00:53:46;0.90;99.90
11087;DHT22;5597;47.588;9.642;2023-02-14T00:56:13;0.90;99.90
11087;DHT22;5597;47.588;9.642;2023-02-14T00:58:39;0.90;99.90
11087;DHT22;5597;47.588;9.642;2023-02-14T01:01:04;0.90;99.90
11087;DHT22;5597;47.588;9.642;2023-02-14T01:03:30;0.90;99.90
11087;DHT22;5597;47.588;9.642;2023-02-14T01:05:56;0.90;99.90
11087;DHT22;5597;47.588;9.642;2023-02-14T01:08:22;0.90;99.90
11087;DHT22;5597;47.588;9.642;2023-02-14T01:10:48;0.90;99.90
11087;DHT22;5597;47.588;9.642;2023-02-14T01:13:14;0.90;99.90
11087;DHT22;5597;47.588;9.642;2023-02-14T01:15:43;0.90;99.90
11087;DHT22;5597;47.588;9.642;2023-02-14T01:18:09;0.90;99.90
11087;DHT22;5597;47.588;9.642;2023-02-14T01:20:35;0.90;99.90
11087;DHT22;5597;47.588;9.642;2023-02-14T01:23:00;0.90;99.90
11087;DHT22;5597;47.588;9.642;2023-02-14T01:25:27;0.90;99.90
11087;DHT22;5597;47.588;9.642;2023-02-14T01:27:53;0.90;99.90
11087;DHT22;5597;47.588;9.642;2023-02-14T01:30:18;0.90;99.90
11087;DHT22;5597;47.588;9.642;2023-02-14T01:32:44;0.90;99.90
11087;DHT22;5597;47.588;9.642;2023-02-14T01:35:10;0.90;99.90
11087;DHT22;5597;47.588;9.642;2023-02-14T01:37:36;1.00;99.90
11087;DHT22;5597;47.588;9.642;2023-02-14T01:40:03;0.90;99.90
11087;DHT22;5597;47.588;9.642;2023-02-14T01:42:29;0.90;99.90
11087;DHT22;5597;47.588;9.642;2023-02-14T01:45:18;0.90;99.90
11087;DHT22;5597;47.588;9.642;2023-02-14T01:47:47;1.00;99.90
11087;DHT22;5597;47.588;9.642;2023-02-14T01:50:19;1.00;99.90
11087;DHT22;5597;47.588;9.642;2023-02-14T01:53:01;1.00;99.90
11087;DHT22;5597;47.588;9.642;2023-02-14T01:55:30;1.00;99.90
11087;DHT22;5597;47.588;9.642;2023-02-14T01:58:08;1.00;99.90
11087;DHT22;5597;47.588;9.642;2023-02-14T02:00:36;1.10;99.90
11087;DHT22;5597;47.588;9.642;2023-02-14T02:03:26;1.00;99.90
11087;DHT22;5597;47.588;9.642;2023-02-14T02:05:56;1.10;99.90
11087;DHT22;5597;47.588;9.642;2023-02-14T02:08:24;1.10;99.90
11087;DHT22;5597;47.588;9.642;2023-02-14T02:10:50;1.10;99.90
11087;DHT22;5597;47.588;9.642;2023-02-14T02:13:17;1.10;99.90
11087;DHT22;5597;47.588;9.642;2023-02-14T02:18:54;1.10;99.90
11087;DHT22;5597;47.588;9.642;2023-02-14T02:24:31;1.10;99.90
11087;DHT22;5597;47.588;9.642;2023-02-14T02:30:07;1.10;99.90
11087;DHT22;5597;47.588;9.642;2023-02-14T02:33:25;1.10;99.90
11087;DHT22;5597;47.588;9.642;2023-02-14T02:38:39;1.10;99.90
11087;DHT22;5597;47.588;9.642;2023-02-14T02:43:54;1.20;99.90
11087;DHT22;5597;47.588;9.642;2023-02-14T02:47:31;1.20;99.90
11087;DHT22;5597;47.588;9.642;2023-02-14T02:53:11;1.20;99.90
11087;DHT22;5597;47.588;9.642;2023-02-14T02:55:51;1.20;99.90
11087;DHT22;5597;47.588;9.642;2023-02-14T03:01:30;1.30;99.90
11087;DHT22;5597;47.588;9.642;2023-02-14T03:03:59;1.30;99.90
11087;DHT22;5597;47.588;9.642;2023-02-14T03:06:45;1.30;99.90
11087;DHT22;5597;47.588;9.642;2023-02-14T03:12:11;1.30;99.90
11087;DHT22;5597;47.588;9.642;2023-02-14T03:14:43;1.30;99.90
11087;DHT22;5597;47.588;9.642;2023-02-14T03:17:20;1.30;99.90
11087;DHT22;5597;47.588;9.642;2023-02-14T03:20:15;1.30;99.90
11087;DHT22;5597;47.588;9.642;2023-02-14T03:28:27;1.40;99.90
11087;DHT22;5597;47.588;9.642;2023-02-14T03:31:11;1.40;99.90
11087;DHT22;5597;47.588;9.642;2023-02-14T03:33:58;1.40;99.90
11087;DHT22;5597;47.588;9.642;2023-02-14T03:36:47;1.40;99.90
11087;DHT22;5597;47.588;9.642;2023-02-14T03:39:20;1.40;99.90
11087;DHT22;5597;47.588;9.642;2023-02-14T03:42:34;1.40;99.90
11087;DHT22;5597;47.588;9.642;2023-02-14T03:44:42;1.40;99.90
11087;DHT22;5597;47.588;9.642;2023-02-14T03:47:11;1.40;99.90
11087;DHT22;5597;47.588;9.642;2023-02-14T03:49:49;1.40;99.90
11087;DHT22;5597;47.588;9.642;2023-02-14T03:52:17;1.40;99.90
11087;DHT22;5597;47.588;9.642;2023-02-14T03:54:45;1.40;99.90
11087;DHT22;5597;47.588;9.642;2023-02-14T03:57:18;1.40;99.90
11087;DHT22;5597;47.588;9.642;2023-02-14T03:59:46;1.30;99.90
11087;DHT22;5597;47.588;9.642;2023-02-14T04:04:57;1.30;99.90
11087;DHT22;5597;47.588;9.642;2023-02-14T04:07:24;1.40;99.90
11087;DHT22;5597;47.588;9.642;2023-02-14T04:09:50;1.30;99.90
11087;DHT22;5597;47.588;9.642;2023-02-14T04:12:17;1.30;99.90
11087;DHT22;5597;47.588;9.642;2023-02-14T04:14:43;1.30;99.90
11087;DHT22;5597;47.588;9.642;2023-02-14T04:17:08;1.30;99.90
11087;DHT22;5597;47.588;9.642;2023-02-14T04:19:53;1.30;99.90
11087;DHT22;5597;47.588;9.642;2023-02-14T04:22:18;1.30;99.90
11087;DHT22;5597;47.588;9.642;2023-02-14T04:24:44;1.30;99.90
11087;DHT22;5597;47.588;9.642;2023-02-14T04:27:10;1.30;99.90
11087;DHT22;5597;47.588;9.642;2023-02-14T04:29:43;1.30;99.90
11087;DHT22;5597;47.588;9.642;2023-02-14T04:32:12;1.30;99.90
11087;DHT22;5597;47.588;9.642;2023-02-14T04:34:38;1.30;99.90
11087;DHT22;5597;47.588;9.642;2023-02-14T04:37:05;1.30;99.90
11087;DHT22;5597;47.588;9.642;2023-02-14T04:39:31;1.40;99.90
11087;DHT22;5597;47.588;9.642;2023-02-14T04:41:57;1.40;99.90
11087;DHT22;5597;47.588;9.642;2023-02-14T04:44:22;1.40;99.90
11087;DHT22;5597;47.588;9.642;2023-02-14T04:46:48;1.40;99.90
11087;DHT22;5597;47.588;9.642;2023-02-14T04:49:14;1.40;99.90
11087;DHT22;5597;47.588;9.642;2023-02-14T04:51:40;1.40;99.90
11087;DHT22;5597;47.588;9.642;2023-02-14T04:54:06;1.30;99.90
11087;DHT22;5597;47.588;9.642;2023-02-14T04:56:32;1.30;99.90
11087;DHT22;5597;47.588;9.642;2023-02-14T04:58:57;1.30;99.90
11087;DHT22;5597;47.588;9.642;2023-02-14T05:01:23;1.30;99.90
11087;DHT22;5597;47.588;9.642;2023-02-14T05:03:49;1.30;99.90
11087;DHT22;5597;47.588;9.642;2023-02-14T05:06:15;1.30;99.90
11087;DHT22;5597;47.588;9.642;2023-02-14T05:08:40;1.30;99.90
11087;DHT22;5597;47.588;9.642;2023-02-14T05:11:06;1.20;99.90
11087;DHT22;5597;47.588;9.642;2023-02-14T05:13:32;1.20;99.90
11087;DHT22;5597;47.588;9.642;2023-02-14T05:15:57;1.20;99.90
11087;DHT22;5597;47.588;9.642;2023-02-14T05:18:23;1.20;99.90
11087;DHT22;5597;47.588;9.642;2023-02-14T05:20:50;1.20;99.90
11087;DHT22;5597;47.588;9.642;2023-02-14T05:23:16;1.20;99.90
11087;DHT22;5597;47.588;9.642;2023-02-14T05:25:42;1.20;99.90
11087;DHT22;5597;47.588;9.642;2023-02-14T05:28:08;1.20;99.90
11087;DHT22;5597;47.588;9.642;2023-02-14T05:30:34;1.20;99.90
11087;DHT22;5597;47.588;9.642;2023-02-14T05:33:00;1.20;99.90
11087;DHT22;5597;47.588;9.642;2023-02-14T05:35:26;1.20;99.90
11087;DHT22;5597;47.588;9.642;2023-02-14T05:37:52;1.20;99.90
11087;DHT22;5597;47.588;9.642;2023-02-14T05:40:17;1.10;99.90
11087;DHT22;5597;47.588;9.642;2023-02-14T05:42:43;1.10;99.90
11087;DHT22;5597;47.588;9.642;2023-02-14T05:45:10;1.10;99.90
11087;DHT22;5597;47.588;9.642;2023-02-14T05:47:37;1.10;99.90
11087;DHT22;5597;47.588;9.642;2023-02-14T05:50:03;1.00;99.90
11087;DHT22;5597;47.588;9.642;2023-02-14T05:52:29;1.00;99.90
11087;DHT22;5597;47.588;9.642;2023-02-14T05:54:54;1.00;99.90
11087;DHT22;5597;47.588;9.642;2023-02-14T05:57:20;1.00;99.90
11087;DHT22;5597;47.588;9.642;2023-02-14T05:59:46;1.00;99.90
11087;DHT22;5597;47.588;9.642;2023-02-14T06:02:11;1.00;99.90
11087;DHT22;5597;47.588;9.642;2023-02-14T06:04:38;1.00;99.90
11087;DHT22;5597;47.588;9.642;2023-02-14T06:07:04;1.00;99.90
11087;DHT22;5597;47.588;9.642;2023-02-14T06:09:29;1.00;99.90
11087;DHT22;5597;47.588;9.642;2023-02-14T06:11:55;0.90;99.90
11087;DHT22;5597;47.588;9.642;2023-02-14T06:14:20;0.90;99.90
11087;DHT22;5597;47.588;9.642;2023-02-14T06:16:46;0.90;99.90
11087;DHT22;5597;47.588;9.642;2023-02-14T06:19:12;0.90;99.90
11087;DHT22;5597;47.588;9.642;2023-02-14T06:21:37;0.90;99.90
11087;DHT22;5597;47.588;9.642;2023-02-14T06:24:03;0.80;99.90
11087;DHT22;5597;47.588;9.642;2023-02-14T06:26:29;0.80;99.90
11087;DHT22;5597;47.588;9.642;2023-02-14T06:28:56;0.80;99.90
11087;DHT22;5597;47.588;9.642;2023-02-14T06:31:22;0.80;99.90
11087;DHT22;5597;47.588;9.642;2023-02-14T06:33:48;0.70;99.90
11087;DHT22;5597;47.588;9.642;2023-02-14T06:36:14;0.70;99.90
11087;DHT22;5597;47.588;9.642;2023-02-14T06:38:40;0.70;99.90
11087;DHT22;5597;47.588;9.642;2023-02-14T06:41:08;0.70;99.90
11087;DHT22;5597;47.588;9.642;2023-02-14T06:43:34;0.70;99.90
11087;DHT22;5597;47.588;9.642;2023-02-14T06:46:00;0.60;99.90
11087;DHT22;5597;47.588;9.642;2023-02-14T06:48:26;0.50;99.90
11087;DHT22;5597;47.588;9.642;2023-02-14T06:50:52;0.50;99.90
11087;DHT22;5597;47.588;9.642;2023-02-14T06:53:19;0.50;99.90
11087;DHT22;5597;47.588;9.642;2023-02-14T06:55:44;0.50;99.90
11087;DHT22;5597;47.588;9.642;2023-02-14T06:58:10;0.50;99.90
11087;DHT22;5597;47.588;9.642;2023-02-14T07:00:36;0.50;99.90
11087;DHT22;5597;47.588;9.642;2023-02-14T07:03:01;0.50;99.90
11087;DHT22;5597;47.588;9.642;2023-02-14T07:05:27;0.60;99.90
11087;DHT22;5597;47.588;9.642;2023-02-14T07:07:53;0.50;99.90
11087;DHT22;5597;47.588;9.642;2023-02-14T07:10:18;0.60;99.90
11087;DHT22;5597;47.588;9.642;2023-02-14T07:12:44;0.50;99.90
11087;DHT22;5597;47.588;9.642;2023-02-14T07:15:11;0.60;99.90
11087;DHT22;5597;47.588;9.642;2023-02-14T07:17:37;0.60;99.90
11087;DHT22;5597;47.588;9.642;2023-02-14T07:20:04;0.60;99.90
11087;DHT22;5597;47.588;9.642;2023-02-14T07:22:31;0.60;99.90
11087;DHT22;5597;47.588;9.642;2023-02-14T07:24:57;0.60;99.90
11087;DHT22;5597;47.588;9.642;2023-02-14T07:27:23;0.60;99.90
11087;DHT22;5597;47.588;9.642;2023-02-14T07:29:48;0.60;99.90
11087;DHT22;5597;47.588;9.642;2023-02-14T07:32:14;0.70;99.90
11087;DHT22;5597;47.588;9.642;2023-02-14T07:34:39;0.70;99.90
11087;DHT22;5597;47.588;9.642;2023-02-14T07:37:05;0.70;99.90
11087;DHT22;5597;47.588;9.642;2023-02-14T07:39:31;0.70;99.90
11087;DHT22;5597;47.588;9.642;2023-02-14T07:41:56;0.70;99.90
11087;DHT22;5597;47.588;9.642;2023-02-14T07:44:22;0.70;99.90
11087;DHT22;5597;47.588;9.642;2023-02-14T07:46:47;0.80;99.90
11087;DHT22;5597;47.588;9.642;2023-02-14T07:49:13;0.80;99.90
11087;DHT22;5597;47.588;9.642;2023-02-14T07:51:39;0.80;99.90
11087;DHT22;5597;47.588;9.642;2023-02-14T07:54:04;0.80;99.90
11087;DHT22;5597;47.588;9.642;2023-02-14T07:56:30;0.80;99.90
11087;DHT22;5597;47.588;9.642;2023-02-14T07:58:56;0.90;99.90
11087;DHT22;5597;47.588;9.642;2023-02-14T08:01:21;0.90;99.90
11087;DHT22;5597;47.588;9.642;2023-02-14T08:03:47;0.90;99.90
11087;DHT22;5597;47.588;9.642;2023-02-14T08:06:19;1.00;99.90
11087;DHT22;5597;47.588;9.642;2023-02-14T08:08:45;1.00;99.90
11087;DHT22;5597;47.588;9.642;2023-02-14T08:11:11;1.10;99.90
11087;DHT22;5597;47.588;9.642;2023-02-14T08:13:57;1.10;99.90
11087;DHT22;5597;47.588;9.642;2023-02-14T08:16:22;1.20;99.90
11087;DHT22;5597;47.588;9.642;2023-02-14T08:18:48;1.20;99.90
11087;DHT22;5597;47.588;9.642;2023-02-14T08:21:14;1.30;99.90
11087;DHT22;5597;47.588;9.642;2023-02-14T08:23:41;1.30;99.90
11087;DHT22;5597;47.588;9.642;2023-02-14T08:26:08;1.40;99.90
11087;DHT22;5597;47.588;9.642;2023-02-14T08:28:33;1.50;99.90
11087;DHT22;5597;47.588;9.642;2023-02-14T08:31:00;1.60;99.90
11087;DHT22;5597;47.588;9.642;2023-02-14T08:33:26;1.60;99.90
11087;DHT22;5597;47.588;9.642;2023-02-14T08:35:52;1.60;99.90
11087;DHT22;5597;47.588;9.642;2023-02-14T08:38:17;1.70;99.90
11087;DHT22;5597;47.588;9.642;2023-02-14T08:40:43;1.70;99.90
11087;DHT22;5597;47.588;9.642;2023-02-14T08:43:09;1.70;99.90
11087;DHT22;5597;47.588;9.642;2023-02-14T08:45:36;1.60;99.90
11087;DHT22;5597;47.588;9.642;2023-02-14T08:48:07;1.60;99.90
11087;DHT22;5597;47.588;9.642;2023-02-14T08:50:33;1.70;99.90
11087;DHT22;5597;47.588;9.642;2023-02-14T08:52:59;1.70;99.90
11087;DHT22;5597;47.588;9.642;2023-02-14T08:55:25;1.70;99.90
11087;DHT22;5597;47.588;9.642;2023-02-14T08:57:54;1.80;99.90
11087;DHT22;5597;47.588;9.642;2023-02-14T09:00:21;1.90;99.90
11087;DHT22;5597;47.588;9.642;2023-02-14T09:02:49;1.90;99.90
11087;DHT22;5597;47.588;9.642;2023-02-14T09:05:15;2.00;99.90
11087;DHT22;5597;47.588;9.642;2023-02-14T09:07:41;2.10;99.90
11087;DHT22;5597;47.588;9.642;2023-02-14T09:10:07;2.10;99.90
11087;DHT22;5597;47.588;9.642;2023-02-14T09:12:33;2.10;99.90
11087;DHT22;5597;47.588;9.642;2023-02-14T09:14:58;2.00;99.90
11087;DHT22;5597;47.588;9.642;2023-02-14T09:17:24;2.10;99.90
11087;DHT22;5597;47.588;9.642;2023-02-14T09:19:49;2.10;99.90
11087;DHT22;5597;47.588;9.642;2023-02-14T09:22:17;2.20;99.90
11087;DHT22;5597;47.588;9.642;2023-02-14T09:24:43;2.30;99.90
11087;DHT22;5597;47.588;9.642;2023-02-14T09:27:09;2.30;99.90
11087;DHT22;5597;47.588;9.642;2023-02-14T09:29:34;2.40;99.90
11087;DHT22;5597;47.588;9.642;2023-02-14T09:32:01;2.50;99.90
11087;DHT22;5597;47.588;9.642;2023-02-14T09:34:32;2.50;99.90
11087;DHT22;5597;47.588;9.642;2023-02-14T09:36:57;2.60;99.90
11087;DHT22;5597;47.588;9.642;2023-02-14T09:39:42;2.60;99.90
11087;DHT22;5597;47.588;9.642;2023-02-14T09:44:46;2.70;99.90
11087;DHT22;5597;47.588;9.642;2023-02-14T09:50:26;2.90;99.90
11087;DHT22;5597;47.588;9.642;2023-02-14T09:53:02;3.00;99.90
11087;DHT22;5597;47.588;9.642;2023-02-14T09:55:44;3.00;99.90
11087;DHT22;5597;47.588;9.642;2023-02-14T09:58:33;2.90;99.90
11087;DHT22;5597;47.588;9.642;2023-02-14T10:01:08;2.90;99.90
11087;DHT22;5597;47.588;9.642;2023-02-14T10:03:59;2.80;99.90
11087;DHT22;5597;47.588;9.642;2023-02-14T10:06:42;2.90;99.90
11087;DHT22;5597;47.588;9.642;2023-02-14T10:12:05;2.90;99.90
11087;DHT22;5597;47.588;9.642;2023-02-14T10:14:35;3.00;99.90
11087;DHT22;5597;47.588;9.642;2023-02-14T10:17:09;3.10;99.90
11087;DHT22;5597;47.588;9.642;2023-02-14T10:19:41;3.20;99.90
11087;DHT22;5597;47.588;9.642;2023-02-14T10:22:15;3.30;99.90
11087;DHT22;5597;47.588;9.642;2023-02-14T10:25:00;3.50;99.90
11087;DHT22;5597;47.588;9.642;2023-02-14T10:27:39;3.60;99.90
11087;DHT22;5597;47.588;9.642;2023-02-14T10:30:18;3.70;99.90
11087;DHT22;5597;47.588;9.642;2023-02-14T10:32:48;3.80;99.90
11087;DHT22;5597;47.588;9.642;2023-02-14T10:35:47;3.80;99.90
11087;DHT22;5597;47.588;9.642;2023-02-14T10:38:33;3.90;99.90
11087;DHT22;5597;47.588;9.642;2023-02-14T10:44:13;4.00;99.90
11087;DHT22;5597;47.588;9.642;2023-02-14T10:46:55;4.10;99.90
11087;DHT22;5597;47.588;9.642;2023-02-14T10:52:24;4.30;99.90
11087;DHT22;5597;47.588;9.642;2023-02-14T10:54:58;4.30;99.90
11087;DHT22;5597;47.588;9.642;2023-02-14T10:57:25;4.30;99.90
11087;DHT22;5597;47.588;9.642;2023-02-14T10:59:56;4.30;99.90
11087;DHT22;5597;47.588;9.642;2023-02-14T11:02:29;4.30;99.90
11087;DHT22;5597;47.588;9.642;2023-02-14T11:04:56;4.30;99.90
11087;DHT22;5597;47.588;9.642;2023-02-14T11:07:22;4.40;99.90
11087;DHT22;5597;47.588;9.642;2023-02-14T11:09:48;4.50;99.90
11087;DHT22;5597;47.588;9.642;2023-02-14T11:12:31;4.60;99.90
11087;DHT22;5597;47.588;9.642;2023-02-14T11:17:41;4.70;99.90
11087;DHT22;5597;47.588;9.642;2023-02-14T11:20:27;4.80;99.90
11087;DHT22;5597;47.588;9.642;2023-02-14T11:22:55;4.80;99.90
11087;DHT22;5597;47.588;9.642;2023-02-14T11:25:28;4.70;99.90
11087;DHT22;5597;47.588;9.642;2023-02-14T11:28:06;4.60;99.90
11087;DHT22;5597;47.588;9.642;2023-02-14T11:30:39;4.60;99.90
11087;DHT22;5597;47.588;9.642;2023-02-14T11:33:09;4.50;99.90
11087;DHT22;5597;47.588;9.642;2023-02-14T11:35:37;4.50;99.90
11087;DHT22;5597;47.588;9.642;2023-02-14T11:38:05;4.50;99.90
11087;DHT22;5597;47.588;9.642;2023-02-14T11:40:36;4.60;99.90
11087;DHT22;5597;47.588;9.642;2023-02-14T11:45:39;4.70;99.90
11087;DHT22;5597;47.588;9.642;2023-02-14T11:48:25;4.80;99.90
11087;DHT22;5597;47.588;9.642;2023-02-14T11:53:43;5.00;99.90
11087;DHT22;5597;47.588;9.642;2023-02-14T11:56:10;5.10;99.90
11087;DHT22;5597;47.588;9.642;2023-02-14T11:58:45;5.10;99.90
11087;DHT22;5597;47.588;9.642;2023-02-14T12:01:37;5.10;99.90
11087;DHT22;5597;47.588;9.642;2023-02-14T12:04:11;5.00;99.90
11087;DHT22;5597;47.588;9.642;2023-02-14T12:06:38;4.90;99.90
11087;DHT22;5597;47.588;9.642;2023-02-14T12:14:28;4.50;99.90
11087;DHT22;5597;47.588;9.642;2023-02-14T12:19:47;4.50;99.90
11087;DHT22;5597;47.588;9.642;2023-02-14T12:22:19;4.50;99.90
11087;DHT22;5597;47.588;9.642;2023-02-14T12:25:08;4.60;99.90
11087;DHT22;5597;47.588;9.642;2023-02-14T12:27:50;4.70;99.90
11087;DHT22;5597;47.588;9.642;2023-02-14T12:30:22;4.90;99.90
11087;DHT22;5597;47.588;9.642;2023-02-14T12:32:53;4.90;99.90
11087;DHT22;5597;47.588;9.642;2023-02-14T12:35:42;4.90;99.90
11087;DHT22;5597;47.588;9.642;2023-02-14T12:38:29;4.90;99.90
11087;DHT22;5597;47.588;9.642;2023-02-14T12:43:45;5.10;99.90
11087;DHT22;5597;47.588;9.642;2023-02-14T12:54:31;5.30;99.90
11087;DHT22;5597;47.588;9.642;2023-02-14T13:13:19;5.50;99.90
11087;DHT22;5597;47.588;9.642;2023-02-14T13:18:50;5.70;99.90
11087;DHT22;5597;47.588;9.642;2023-02-14T13:21:21;5.60;99.90
11087;DHT22;5597;47.588;9.642;2023-02-14T13:23:49;5.40;99.90
11087;DHT22;5597;47.588;9.642;2023-02-14T13:26:21;5.40;99.90
11087;DHT22;5597;47.588;9.642;2023-02-14T13:28:57;5.50;99.90
11087;DHT22;5597;47.588;9.642;2023-02-14T13:31:26;5.60;99.90
11087;DHT22;5597;47.588;9.642;2023-02-14T13:36:34;5.90;99.90
11087;DHT22;5597;47.588;9.642;2023-02-14T13:39:02;6.00;99.90
11087;DHT22;5597;47.588;9.642;2023-02-14T13:41:28;6.10;99.90
11087;DHT22;5597;47.588;9.642;2023-02-14T13:43:58;6.00;99.90
11087;DHT22;5597;47.588;9.642;2023-02-14T13:49:29;6.00;99.90
11087;DHT22;5597;47.588;9.642;2023-02-14T13:51:59;5.90;99.90
11087;DHT22;5597;47.588;9.642;2023-02-14T13:54:45;5.90;99.90
11087;DHT22;5597;47.588;9.642;2023-02-14T13:57:33;5.90;99.90
11087;DHT22;5597;47.588;9.642;2023-02-14T14:02:52;6.00;99.90
11087;DHT22;5597;47.588;9.642;2023-02-14T14:10:53;6.00;99.90
11087;DHT22;5597;47.588;9.642;2023-02-14T14:21:43;6.00;99.90
11087;DHT22;5597;47.588;9.642;2023-02-14T14:24:22;6.00;99.90
11087;DHT22;5597;47.588;9.642;2023-02-14T14:29:38;5.90;99.90
11087;DHT22;5597;47.588;9.642;2023-02-14T14:32:32;5.90;99.90
11087;DHT22;5597;47.588;9.642;2023-02-14T14:35:27;5.90;99.90
11087;DHT22;5597;47.588;9.642;2023-02-14T14:37:57;5.90;99.90
11087;DHT22;5597;47.588;9.642;2023-02-14T14:40:29;5.80;99.90
11087;DHT22;5597;47.588;9.642;2023-02-14T14:43:14;5.70;99.90
11087;DHT22;5597;47.588;9.642;2023-02-14T14:45:45;5.60;99.90
11087;DHT22;5597;47.588;9.642;2023-02-14T14:48:15;5.50;99.90
11087;DHT22;5597;47.588;9.642;2023-02-14T14:50:46;5.50;99.90
11087;DHT22;5597;47.588;9.642;2023-02-14T14:53:23;5.50;99.90
11087;DHT22;5597;47.588;9.642;2023-02-14T14:55:50;5.40;99.90
11087;DHT22;5597;47.588;9.642;2023-02-14T14:58:46;5.50;99.90
11087;DHT22;5597;47.588;9.642;2023-02-14T15:01:35;5.50;99.90
11087;DHT22;5597;47.588;9.642;2023-02-14T15:06:49;5.40;99.90
11087;DHT22;5597;47.588;9.642;2023-02-14T15:09:30;5.40;99.90
11087;DHT22;5597;47.588;9.642;2023-02-14T15:11:58;5.40;99.90
11087;DHT22;5597;47.588;9.642;2023-02-14T15:14:46;5.30;99.90
11087;DHT22;5597;47.588;9.642;2023-02-14T15:17:21;5.30;99.90
11087;DHT22;5597;47.588;9.642;2023-02-14T15:19:53;5.30;99.90
11087;DHT22;5597;47.588;9.642;2023-02-14T15:22:26;5.20;99.90
11087;DHT22;5597;47.588;9.642;2023-02-14T15:24:54;5.20;99.90
11087;DHT22;5597;47.588;9.642;2023-02-14T15:27:24;5.10;99.90
11087;DHT22;5597;47.588;9.642;2023-02-14T15:29:56;5.00;99.90
11087;DHT22;5597;47.588;9.642;2023-02-14T15:32:28;4.90;99.90
11087;DHT22;5597;47.588;9.642;2023-02-14T15:34:54;4.80;99.90
11087;DHT22;5597;47.588;9.642;2023-02-14T15:37:21;4.80;99.90
11087;DHT22;5597;47.588;9.642;2023-02-14T15:39:50;4.70;99.90
11087;DHT22;5597;47.588;9.642;2023-02-14T15:42:29;4.70;99.90
11087;DHT22;5597;47.588;9.642;2023-02-14T15:45:25;4.70;99.90
11087;DHT22;5597;47.588;9.642;2023-02-14T15:47:56;4.60;99.90
11087;DHT22;5597;47.588;9.642;2023-02-14T15:50:25;4.70;99.90
11087;DHT22;5597;47.588;9.642;2023-02-14T19:27:12;1.40;99.90
11087;DHT22;5597;47.588;9.642;2023-02-14T19:29:37;1.30;99.90
11087;DHT22;5597;47.588;9.642;2023-02-14T19:32:04;1.30;99.90
11087;DHT22;5597;47.588;9.642;2023-02-14T19:34:30;1.20;99.90
11087;DHT22;5597;47.588;9.642;2023-02-14T19:36:58;1.20;99.90
11087;DHT22;5597;47.588;9.642;2023-02-14T19:39:28;1.20;99.90
11087;DHT22;5597;47.588;9.642;2023-02-14T19:41:55;1.10;99.90
11087;DHT22;5597;47.588;9.642;2023-02-14T19:44:21;1.10;99.90
11087;DHT22;5597;47.588;9.642;2023-02-14T19:46:48;1.10;99.90
11087;DHT22;5597;47.588;9.642;2023-02-14T19:49:16;1.10;99.90
11087;DHT22;5597;47.588;9.642;2023-02-14T19:51:43;1.00;99.90
11087;DHT22;5597;47.588;9.642;2023-02-14T19:54:09;1.00;99.90
11087;DHT22;5597;47.588;9.642;2023-02-14T19:56:36;0.90;99.90
11087;DHT22;5597;47.588;9.642;2023-02-14T19:59:03;0.90;99.90
11087;DHT22;5597;47.588;9.642;2023-02-14T20:01:43;0.90;99.90
11087;DHT22;5597;47.588;9.642;2023-02-14T20:04:22;0.90;99.90
11087;DHT22;5597;47.588;9.642;2023-02-14T20:06:48;0.90;99.90
11087;DHT22;5597;47.588;9.642;2023-02-14T20:09:16;0.90;99.90
11087;DHT22;5597;47.588;9.642;2023-02-14T20:11:44;0.80;99.90
11087;DHT22;5597;47.588;9.642;2023-02-14T20:14:25;0.80;99.90
11087;DHT22;5597;47.588;9.642;2023-02-14T20:16:53;0.80;99.90
11087;DHT22;5597;47.588;9.642;2023-02-14T20:19:20;0.80;99.90
11087;DHT22;5597;47.588;9.642;2023-02-14T20:21:48;0.80;99.90
11087;DHT22;5597;47.588;9.642;2023-02-14T20:24:18;0.70;99.90
11087;DHT22;5597;47.588;9.642;2023-02-14T20:26:45;0.70;99.90
11087;DHT22;5597;47.588;9.642;2023-02-14T20:29:12;0.70;99.90
11087;DHT22;5597;47.588;9.642;2023-02-14T20:31:44;0.60;99.90
11087;DHT22;5597;47.588;9.642;2023-02-14T20:34:10;0.60;99.90
11087;DHT22;5597;47.588;9.642;2023-02-14T20:36:39;0.50;99.90
11087;DHT22;5597;47.588;9.642;2023-02-14T20:39:06;0.50;99.90
11087;DHT22;5597;47.588;9.642;2023-02-14T20:41:33;0.40;99.90
11087;DHT22;5597;47.588;9.642;2023-02-14T20:44:04;0.40;99.90
11087;DHT22;5597;47.588;9.642;2023-02-14T20:46:32;0.40;99.90
11087;DHT22;5597;47.588;9.642;2023-02-14T20:48:58;0.40;99.90
11087;DHT22;5597;47.588;9.642;2023-02-14T20:51:24;0.40;99.90
11087;DHT22;5597;47.588;9.642;2023-02-14T20:53:51;0.40;99.90
11087;DHT22;5597;47.588;9.642;2023-02-14T20:56:17;0.40;99.90
11087;DHT22;5597;47.588;9.642;2023-02-14T20:58:44;0.40;99.90
11087;DHT22;5597;47.588;9.642;2023-02-14T21:01:13;0.40;99.90
11087;DHT22;5597;47.588;9.642;2023-02-14T21:03:40;0.40;99.90
11087;DHT22;5597;47.588;9.642;2023-02-14T21:06:07;0.40;99.90
11087;DHT22;5597;47.588;9.642;2023-02-14T21:08:34;0.40;99.90
11087;DHT22;5597;47.588;9.642;2023-02-14T21:11:01;0.40;99.90
11087;DHT22;5597;47.588;9.642;2023-02-14T21:13:27;0.40;99.90
11087;DHT22;5597;47.588;9.642;2023-02-14T21:15:53;0.40;99.90
11087;DHT22;5597;47.588;9.642;2023-02-14T21:18:18;0.40;99.90
11087;DHT22;5597;47.588;9.642;2023-02-14T21:20:44;0.40;99.90
11087;DHT22;5597;47.588;9.642;2023-02-14T21:23:10;0.40;99.90
11087;DHT22;5597;47.588;9.642;2023-02-14T21:25:36;0.40;99.90
11087;DHT22;5597;47.588;9.642;2023-02-14T21:28:01;0.40;99.90
11087;DHT22;5597;47.588;9.642;2023-02-14T21:30:27;0.40;99.90
11087;DHT22;5597;47.588;9.642;2023-02-14T21:32:55;0.40;99.90
11087;DHT22;5597;47.588;9.642;2023-02-14T21:35:21;0.40;99.90
11087;DHT22;5597;47.588;9.642;2023-02-14T21:37:47;0.40;99.90
11087;DHT22;5597;47.588;9.642;2023-02-14T21:40:13;0.40;99.90
11087;DHT22;5597;47.588;9.642;2023-02-14T21:42:38;0.40;99.90
11087;DHT22;5597;47.588;9.642;2023-02-14T21:45:04;0.40;99.90
11087;DHT22;5597;47.588;9.642;2023-02-14T21:47:48;0.40;99.90
11087;DHT22;5597;47.588;9.642;2023-02-14T21:50:36;0.40;99.90
11087;DHT22;5597;47.588;9.642;2023-02-14T21:53:01;0.40;99.90
11087;DHT22;5597;47.588;9.642;2023-02-14T21:55:27;0.40;99.90
11087;DHT22;5597;47.588;9.642;2023-02-14T21:57:53;0.50;99.90